Time;durP1;ratioP1;P1;durP2;ratioP2;P2;SDS_P1;SDS_P2;PMS_P1;PMS_P2;Temp;Humidity;BMP_temperature;BMP_pressure;BME280_temperature;BME280_humidity;BME280_pressure;Samples;Min_cycle;Max_cycle;Signal;HPM_P1;HPM_P2
2024/02/25 00:01:43;;;;;;;6.87;1.87;;;24.40;64.20;;;;;;5048187;28;20641;-72
2024/02/25 00:04:11;;;;;;;7.20;1.20;;;24.50;63.20;;;;;;5045080;28;20204;-76
2024/02/25 00:06:45;;;;;;;5.90;1.47;;;24.40;62.90;;;;;;5047673;28;20218;-75
2024/02/25 00:09:13;;;;;;;3.70;1.40;;;24.20;63.90;;;;;;5049751;28;20242;-75
2024/02/25 00:11:42;;;;;;;6.00;1.80;;;24.50;62.90;;;;;;5044060;28;20197;-78
2024/02/25 00:14:09;;;;;;;5.33;1.70;;;24.60;63.30;;;;;;5047600;28;20172;-73
2024/02/25 00:16:37;;;;;;;7.17;1.73;;;24.80;62.70;;;;;;5049641;28;20619;-73
2024/02/25 00:19:04;;;;;;;5.87;1.60;;;24.80;62.00;;;;;;5047350;28;20649;-73
2024/02/25 00:21:34;;;;;;;5.30;1.80;;;24.80;61.90;;;;;;5046661;28;20234;-74
2024/02/25 00:24:01;;;;;;;9.40;1.43;;;24.90;61.90;;;;;;5046537;28;20298;-76
2024/02/25 00:26:29;;;;;;;6.53;1.40;;;25.10;61.40;;;;;;5050545;28;20212;-75
2024/02/25 00:28:57;;;;;;;6.33;1.40;;;25.20;60.50;;;;;;5047523;28;20633;-82
2024/02/25 00:31:24;;;;;;;4.30;1.20;;;25.30;59.80;;;;;;5050446;28;20259;-74
2024/02/25 00:33:51;;;;;;;8.40;1.43;;;25.20;60.20;;;;;;5032552;28;20180;-75
2024/02/25 00:36:19;;;;;;;9.63;1.50;;;25.20;59.50;;;;;;5025200;28;20237;-75
2024/02/25 00:38:46;;;;;;;5.33;1.33;;;25.00;59.40;;;;;;5032556;28;20560;-77
2024/02/25 00:41:13;;;;;;;3.97;1.07;;;25.10;60.00;;;;;;5047417;28;21512;-73
2024/02/25 00:43:41;;;;;;;3.90;1.43;;;25.30;58.80;;;;;;5047056;28;20199;-73
2024/02/25 00:46:09;;;;;;;4.50;1.50;;;25.30;56.60;;;;;;5045640;28;20231;-75
2024/02/25 00:48:39;;;;;;;4.97;1.70;;;25.30;57.90;;;;;;5019686;28;20204;-75
2024/02/25 00:51:09;;;;;;;5.67;1.50;;;25.30;56.20;;;;;;5046600;28;20542;-76
2024/02/25 00:53:36;;;;;;;5.70;2.00;;;25.20;55.90;;;;;;5050700;28;20180;-81
2024/02/25 00:56:05;;;;;;;5.60;1.70;;;25.60;57.00;;;;;;5048154;28;20192;-72
2024/02/25 00:58:35;;;;;;;5.43;1.80;;;25.90;55.30;;;;;;5043814;28;20549;-76
2024/02/25 01:01:03;;;;;;;4.80;1.40;;;26.00;55.00;;;;;;5045615;28;20337;-74
2024/02/25 01:03:30;;;;;;;4.07;1.67;;;25.90;54.40;;;;;;5048365;28;20236;-80
2024/02/25 01:05:57;;;;;;;7.40;1.87;;;25.80;54.80;;;;;;5045482;28;20697;-75
2024/02/25 01:08:25;;;;;;;5.07;1.77;;;25.90;55.40;;;;;;5044856;28;20188;-76
2024/02/25 01:10:52;;;;;;;3.60;1.37;;;25.90;53.50;;;;;;5046016;28;20199;-75
2024/02/25 01:13:19;;;;;;;5.77;2.17;;;25.70;54.20;;;;;;5046500;28;20673;-77
2024/02/25 01:15:47;;;;;;;3.87;1.50;;;25.90;53.70;;;;;;5046815;28;20200;-76
2024/02/25 01:18:14;;;;;;;8.57;1.90;;;26.00;54.10;;;;;;5045728;28;20618;-73
2024/02/25 01:20:41;;;;;;;4.97;1.83;;;26.10;53.50;;;;;;5046360;28;20649;-75
2024/02/25 01:23:09;;;;;;;4.93;1.60;;;26.00;53.70;;;;;;5046692;28;20184;-72
2024/02/25 01:25:36;;;;;;;3.87;1.60;;;25.90;54.50;;;;;;5043823;28;20203;-71
2024/02/25 01:28:03;;;;;;;5.33;1.60;;;26.10;54.70;;;;;;5045437;28;20262;-72
2024/02/25 01:30:33;;;;;;;5.37;1.70;;;26.00;54.00;;;;;;5044444;28;20646;-72
2024/02/25 01:33:01;;;;;;;4.40;1.53;;;26.30;53.80;;;;;;5036866;28;20534;-72
2024/02/25 01:35:28;;;;;;;5.77;1.87;;;26.50;54.00;;;;;;5042688;28;20188;-73
2024/02/25 01:37:55;;;;;;;4.37;2.07;;;26.70;53.10;;;;;;5047312;28;20188;-73
2024/02/25 01:40:23;;;;;;;6.67;1.80;;;26.70;52.60;;;;;;5040981;28;20633;-75
2024/02/25 01:43:15;;;;;;;4.07;1.83;;;26.80;52.10;;;;;;5047505;28;20184;-73
2024/02/25 01:45:44;;;;;;;5.53;2.80;;;26.70;52.70;;;;;;5034606;28;20219;-74
2024/02/25 01:48:12;;;;;;;7.10;1.80;;;27.00;52.80;;;;;;5040939;28;20183;-73
2024/02/25 01:50:41;;;;;;;5.63;1.80;;;27.10;52.70;;;;;;5045664;28;20180;-73
2024/02/25 01:53:13;;;;;;;4.40;1.80;;;26.90;51.60;;;;;;5042157;28;20307;-76
2024/02/25 01:55:45;;;;;;;5.83;1.80;;;27.20;52.00;;;;;;5046036;28;20565;-72
2024/02/25 01:58:13;;;;;;;4.30;2.00;;;27.20;51.50;;;;;;5045862;28;20183;-74
2024/02/25 02:00:46;;;;;;;6.73;2.03;;;27.40;50.80;;;;;;5039999;28;20267;-72
2024/02/25 02:03:15;;;;;;;5.97;1.90;;;27.60;51.30;;;;;;5045876;28;20189;-73
2024/02/25 02:05:43;;;;;;;7.27;2.23;;;27.40;50.40;;;;;;5044737;28;20361;-73
2024/02/25 02:08:10;;;;;;;5.53;1.97;;;27.80;50.60;;;;;;5046403;28;20168;-73
2024/02/25 02:10:38;;;;;;;5.83;2.37;;;28.10;49.90;;;;;;5046347;28;20200;-77
2024/02/25 02:13:07;;;;;;;5.07;1.73;;;28.10;49.80;;;;;;5048330;28;20210;-77
2024/02/25 02:15:39;;;;;;;4.27;1.83;;;27.80;49.30;;;;;;5047048;28;20246;-73
2024/02/25 02:18:06;;;;;;;4.87;1.50;;;27.60;50.30;;;;;;5047522;28;20176;-71
2024/02/25 02:20:33;;;;;;;5.43;1.80;;;27.70;50.50;;;;;;5044446;28;20658;-72
2024/02/25 02:23:01;;;;;;;3.50;1.63;;;27.80;49.80;;;;;;5042192;28;20182;-72
2024/02/25 02:25:28;;;;;;;8.47;2.03;;;28.10;49.60;;;;;;5044018;28;20453;-74
2024/02/25 02:27:56;;;;;;;3.33;1.73;;;28.60;48.40;;;;;;5046427;28;20227;-74
2024/02/25 02:30:23;;;;;;;6.57;2.20;;;28.50;48.10;;;;;;5053435;28;20556;-76
2024/02/25 02:32:50;;;;;;;3.77;1.90;;;28.60;47.50;;;;;;5041328;28;20215;-73
2024/02/25 02:35:18;;;;;;;6.20;1.63;;;28.30;48.50;;;;;;5052330;28;20184;-76
2024/02/25 02:37:45;;;;;;;4.17;2.10;;;28.50;48.90;;;;;;5050179;28;20677;-74
2024/02/25 02:40:13;;;;;;;4.73;2.00;;;28.80;48.30;;;;;;5051581;28;20192;-76
2024/02/25 02:42:43;;;;;;;4.50;1.80;;;28.90;47.70;;;;;;5050266;28;20191;-80
2024/02/25 02:45:10;;;;;;;5.13;1.93;;;29.30;47.10;;;;;;5044835;28;20215;-77
2024/02/25 02:47:37;;;;;;;4.00;1.83;;;29.40;46.50;;;;;;5050229;28;20208;-76
2024/02/25 02:50:05;;;;;;;4.33;1.77;;;29.30;46.50;;;;;;5051523;28;20188;-76
2024/02/25 02:52:33;;;;;;;6.43;2.30;;;29.30;46.10;;;;;;5050136;28;20195;-80
2024/02/25 02:55:00;;;;;;;6.13;2.20;;;29.50;46.10;;;;;;5052460;28;20211;-81
2024/02/25 02:57:27;;;;;;;5.50;1.80;;;29.80;46.40;;;;;;5049964;28;20196;-78
2024/02/25 02:59:54;;;;;;;4.00;1.77;;;29.40;46.50;;;;;;5053372;28;20664;-82
2024/02/25 03:02:22;;;;;;;5.60;2.13;;;29.30;46.40;;;;;;5046019;28;20263;-77
2024/02/25 03:04:51;;;;;;;3.97;1.80;;;29.30;46.10;;;;;;5049394;28;20194;-80
2024/02/25 03:07:18;;;;;;;4.00;1.80;;;29.30;46.80;;;;;;5051234;28;20341;-75
2024/02/25 03:09:47;;;;;;;4.85;1.67;;;29.60;46.20;;;;;;5052434;28;20187;-79
2024/02/25 03:12:15;;;;;;;8.33;1.83;;;30.30;44.90;;;;;;5051756;28;20187;-73
2024/02/25 03:14:43;;;;;;;5.13;2.10;;;30.00;45.40;;;;;;5042554;28;20279;-76
2024/02/25 03:17:11;;;;;;;8.50;2.00;;;30.00;47.40;;;;;;5049680;28;20204;-73
2024/02/25 03:19:40;;;;;;;6.13;1.90;;;28.80;48.60;;;;;;5051295;28;20184;-75
2024/02/25 03:22:08;;;;;;;2.47;1.70;;;29.00;48.60;;;;;;5033535;28;20540;-76
2024/02/25 03:24:36;;;;;;;7.73;2.30;;;29.40;47.80;;;;;;5051235;28;20184;-76
2024/02/25 03:27:04;;;;;;;4.28;2.03;;;30.40;46.30;;;;;;5051988;28;20269;-76
2024/02/25 03:29:31;;;;;;;6.07;2.00;;;30.00;48.40;;;;;;5051624;28;20184;-74
2024/02/25 03:31:59;;;;;;;6.80;1.98;;;30.20;48.80;;;;;;5048374;28;20216;-76
2024/02/25 03:34:26;;;;;;;6.77;2.13;;;30.10;49.00;;;;;;5049402;28;20321;-75
2024/02/25 03:36:53;;;;;;;8.95;2.05;;;29.70;49.40;;;;;;5030992;28;20598;-74
2024/02/25 03:39:21;;;;;;;5.03;1.80;;;30.00;49.30;;;;;;5034162;28;20546;-74
2024/02/25 03:41:52;;;;;;;5.13;1.85;;;30.10;49.00;;;;;;5033733;28;20203;-73
2024/02/25 03:44:20;;;;;;;6.03;2.05;;;29.80;49.40;;;;;;5051369;28;20757;-73
2024/02/25 03:46:47;;;;;;;5.78;1.40;;;29.80;49.70;;;;;;5052323;28;20694;-77
2024/02/25 03:49:14;;;;;;;6.95;1.88;;;29.80;49.90;;;;;;5050799;28;20595;-71
2024/02/25 03:51:43;;;;;;;6.07;2.28;;;30.20;49.50;;;;;;5052099;28;20233;-76
2024/02/25 03:54:10;;;;;;;7.72;1.92;;;30.20;49.30;;;;;;5031233;28;20191;-75
2024/02/25 03:56:41;;;;;;;5.05;1.63;;;29.90;51.00;;;;;;5048905;28;20195;-77
2024/02/25 03:59:08;;;;;;;6.85;1.50;;;29.30;51.80;;;;;;5050840;28;20598;-75
2024/02/25 04:01:35;;;;;;;9.43;2.28;;;28.90;53.00;;;;;;5051080;28;20196;-74
2024/02/25 04:04:02;;;;;;;5.53;1.60;;;29.20;53.00;;;;;;5048832;28;20188;-76
2024/02/25 04:06:30;;;;;;;5.53;1.80;;;29.60;51.60;;;;;;5047692;28;20223;-73
2024/02/25 04:08:57;;;;;;;6.60;2.00;;;29.60;51.40;;;;;;5049906;28;20183;-74
2024/02/25 04:11:25;;;;;;;6.60;1.70;;;30.30;50.10;;;;;;5050870;28;20184;-73
2024/02/25 04:13:52;;;;;;;8.00;2.22;;;30.40;50.00;;;;;;5051089;28;20201;-72
2024/02/25 04:16:20;;;;;;;8.70;2.17;;;30.70;49.40;;;;;;5048783;28;20183;-72
2024/02/25 04:18:47;;;;;;;6.75;1.92;;;30.60;49.70;;;;;;5051251;28;20184;-75
2024/02/25 04:21:14;;;;;;;5.63;1.50;;;30.30;49.90;;;;;;5047755;28;20187;-72
2024/02/25 04:23:44;;;;;;;6.50;1.90;;;30.00;50.30;;;;;;5045185;28;20192;-74
2024/02/25 04:26:11;;;;;;;5.88;1.67;;;29.30;51.90;;;;;;5049701;28;20219;-72
2024/02/25 04:28:38;;;;;;;5.00;1.80;;;29.70;51.70;;;;;;5046176;28;20234;-71
2024/02/25 04:31:06;;;;;;;10.57;2.17;;;29.50;51.10;;;;;;5044991;28;20219;-72
2024/02/25 04:33:36;;;;;;;5.10;1.67;;;29.80;51.20;;;;;;5046705;28;20187;-77
2024/02/25 04:36:03;;;;;;;7.47;2.05;;;30.30;49.80;;;;;;5044408;28;20183;-73
2024/02/25 04:38:31;;;;;;;5.43;2.05;;;29.90;51.00;;;;;;5044405;28;20704;-74
2024/02/25 04:41:02;;;;;;;10.07;2.10;;;30.20;49.50;;;;;;5044582;28;20196;-73
2024/02/25 04:43:30;;;;;;;6.47;1.80;;;30.30;50.70;;;;;;5048150;28;20172;-75
2024/02/25 04:45:57;;;;;;;5.43;1.75;;;30.80;48.80;;;;;;5049937;28;20345;-76
2024/02/25 04:48:24;;;;;;;9.68;1.73;;;31.00;48.10;;;;;;5049661;28;20199;-73
2024/02/25 04:50:55;;;;;;;5.85;2.20;;;30.20;49.40;;;;;;5044237;28;20226;-72
2024/02/25 04:53:25;;;;;;;7.63;2.10;;;29.80;50.60;;;;;;5049909;28;20179;-80
2024/02/25 04:55:52;;;;;;;5.45;1.85;;;30.00;50.20;;;;;;5050038;28;20183;-76
2024/02/25 04:58:20;;;;;;;3.97;1.80;;;30.30;49.90;;;;;;5045712;28;20195;-73
2024/02/25 05:00:48;;;;;;;5.85;1.88;;;30.90;48.50;;;;;;5027993;28;20554;-79
2024/02/25 05:03:15;;;;;;;3.70;1.70;;;30.40;49.20;;;;;;5049158;28;20180;-75
2024/02/25 05:05:45;;;;;;;4.88;1.70;;;30.70;48.40;;;;;;5048812;28;20563;-77
2024/02/25 05:08:12;;;;;;;4.25;1.70;;;30.60;48.40;;;;;;5033072;28;20313;-77
2024/02/25 05:10:40;;;;;;;5.65;1.45;;;31.10;48.20;;;;;;5034452;28;20184;-77
2024/02/25 05:13:08;;;;;;;7.93;2.20;;;31.20;47.40;;;;;;5043621;28;20183;-78
2024/02/25 05:15:35;;;;;;;6.53;1.70;;;31.00;48.00;;;;;;5045875;28;20178;-77
2024/02/25 05:18:03;;;;;;;5.20;1.45;;;31.30;46.90;;;;;;5029756;28;20618;-76
2024/02/25 05:20:30;;;;;;;8.43;1.80;;;30.90;47.30;;;;;;5046970;28;20168;-74
2024/02/25 05:22:57;;;;;;;6.07;1.85;;;31.00;47.80;;;;;;5048473;28;20183;-78
2024/02/25 05:25:27;;;;;;;4.97;1.90;;;31.40;46.90;;;;;;5045110;28;20226;-82
2024/02/25 05:27:56;;;;;;;5.47;1.90;;;31.50;46.90;;;;;;5046326;28;20216;-78
2024/02/25 05:30:25;;;;;;;6.28;2.10;;;31.30;47.00;;;;;;5041359;28;20199;-76
2024/02/25 05:32:52;;;;;;;4.97;1.48;;;31.20;47.10;;;;;;5048027;28;20203;-78
2024/02/25 05:35:19;;;;;;;5.68;1.80;;;31.30;47.70;;;;;;5043282;28;20203;-75
2024/02/25 05:37:47;;;;;;;7.38;1.67;;;31.30;48.40;;;;;;5043809;28;20179;-75
2024/02/25 05:40:14;;;;;;;8.85;1.90;;;30.80;48.70;;;;;;5046435;28;20279;-76
2024/02/25 05:42:42;;;;;;;4.75;1.95;;;30.30;49.90;;;;;;5043843;28;20191;-73
2024/02/25 05:45:11;;;;;;;4.88;1.73;;;30.80;48.40;;;;;;5026564;28;20248;-75
2024/02/25 05:47:38;;;;;;;8.55;1.92;;;30.90;50.00;;;;;;5047485;28;20187;-74
2024/02/25 05:50:07;;;;;;;6.15;1.73;;;30.70;49.30;;;;;;5047009;28;20212;-73
2024/02/25 05:52:34;;;;;;;6.07;1.90;;;30.80;49.20;;;;;;5048113;28;20180;-74
2024/02/25 05:55:03;;;;;;;7.43;1.85;;;30.50;49.50;;;;;;5041676;28;20269;-71
2024/02/25 05:57:33;;;;;;;6.03;1.75;;;30.90;49.90;;;;;;5045904;28;20184;-77
2024/02/25 06:00:01;;;;;;;10.18;1.77;;;31.30;48.40;;;;;;5024431;28;20195;-77
2024/02/25 06:02:28;;;;;;;4.60;1.70;;;31.10;49.40;;;;;;5032901;28;20282;-75
2024/02/25 06:04:55;;;;;;;8.30;1.80;;;32.10;46.90;;;;;;5045784;28;20169;-75
2024/02/25 06:07:26;;;;;;;4.95;1.70;;;32.70;45.50;;;;;;5044079;28;20275;-72
2024/02/25 06:09:53;;;;;;;7.03;1.95;;;31.50;47.30;;;;;;5031571;28;20238;-77
2024/02/25 06:12:23;;;;;;;6.13;1.50;;;30.80;49.40;;;;;;5048215;28;20195;-72
2024/02/25 06:14:50;;;;;;;5.70;1.80;;;31.30;48.90;;;;;;5032562;28;20185;-73
2024/02/25 06:17:17;;;;;;;5.35;2.03;;;31.20;49.60;;;;;;5043271;28;20233;-80
2024/02/25 06:19:45;;;;;;;6.25;2.30;;;31.50;48.70;;;;;;5044272;28;20194;-74
2024/02/25 06:22:12;;;;;;;4.93;1.75;;;31.10;49.90;;;;;;5048872;28;20241;-72
2024/02/25 06:24:42;;;;;;;5.55;1.80;;;31.30;48.60;;;;;;5041649;28;20183;-73
2024/02/25 06:27:09;;;;;;;6.43;1.77;;;31.10;49.40;;;;;;5042812;28;20295;-72
2024/02/25 06:29:37;;;;;;;5.45;1.85;;;31.40;48.40;;;;;;5042365;28;20230;-74
2024/02/25 06:32:04;;;;;;;7.65;1.88;;;30.90;50.30;;;;;;5051059;28;20316;-75
2024/02/25 06:34:32;;;;;;;7.95;2.47;;;30.40;51.10;;;;;;5043323;28;20264;-73
2024/02/25 06:36:59;;;;;;;9.10;1.90;;;30.30;51.50;;;;;;5027329;28;20797;-73
2024/02/25 06:39:27;;;;;;;6.03;2.30;;;30.50;50.60;;;;;;5048957;28;20262;-73
2024/02/25 06:41:57;;;;;;;7.03;2.00;;;30.40;51.50;;;;;;5048258;28;20612;-73
2024/02/25 06:44:24;;;;;;;4.85;2.10;;;31.10;49.40;;;;;;5039804;28;20215;-72
2024/02/25 06:46:52;;;;;;;10.10;2.42;;;30.60;50.30;;;;;;5044514;28;20574;-72
2024/02/25 06:49:22;;;;;;;3.97;1.85;;;29.80;53.70;;;;;;5048155;28;20632;-70
2024/02/25 06:51:50;;;;;;;6.25;2.45;;;30.20;51.90;;;;;;5042083;28;20543;-72
2024/02/25 06:54:19;;;;;;;5.15;1.88;;;30.60;51.10;;;;;;5046015;28;20187;-72
2024/02/25 06:56:48;;;;;;;9.80;2.50;;;29.70;53.60;;;;;;5044774;28;20275;-74
2024/02/25 06:59:15;;;;;;;10.07;2.70;;;29.60;54.20;;;;;;5029497;28;20715;-73
2024/02/25 07:01:42;;;;;;;4.35;2.50;;;30.70;51.50;;;;;;5048081;28;20172;-75
2024/02/25 07:04:09;;;;;;;7.72;2.40;;;30.20;52.40;;;;;;5043653;28;20176;-76
2024/02/25 07:06:41;;;;;;;6.47;2.25;;;29.90;53.40;;;;;;5043666;28;20216;-76
2024/02/25 07:09:10;;;;;;;5.93;2.13;;;30.70;51.80;;;;;;5046941;28;20628;-76
2024/02/25 07:11:37;;;;;;;8.93;2.47;;;29.90;53.80;;;;;;5046885;28;20214;-75
2024/02/25 07:14:07;;;;;;;6.55;2.42;;;29.80;53.50;;;;;;5044710;28;20577;-75
2024/02/25 07:16:35;;;;;;;4.20;2.10;;;29.90;53.80;;;;;;5044538;28;20367;-73
2024/02/25 07:19:03;;;;;;;5.83;2.73;;;29.80;54.80;;;;;;5049361;28;20202;-73
2024/02/25 07:21:31;;;;;;;5.53;2.60;;;29.90;54.00;;;;;;5049229;28;20270;-72
2024/02/25 07:24:01;;;;;;;6.07;2.73;;;29.80;54.10;;;;;;5048990;28;20196;-73
2024/02/25 07:26:28;;;;;;;7.07;2.60;;;29.30;55.50;;;;;;5045976;28;20219;-80
2024/02/25 07:28:57;;;;;;;8.73;2.78;;;29.80;53.60;;;;;;5046728;28;20216;-73
2024/02/25 07:31:24;;;;;;;8.40;3.30;;;29.40;55.30;;;;;;5051615;28;20274;-74
2024/02/25 07:33:51;;;;;;;7.17;3.27;;;29.20;56.10;;;;;;5046905;28;20180;-73
2024/02/25 07:36:19;;;;;;;5.90;2.60;;;29.10;56.50;;;;;;5048167;28;20184;-78
2024/02/25 07:38:46;;;;;;;5.77;3.40;;;28.40;57.90;;;;;;5052221;28;20184;-74
2024/02/25 07:41:14;;;;;;;7.75;4.15;;;28.40;59.20;;;;;;5048715;28;20257;-77
2024/02/25 07:43:42;;;;;;;9.67;3.50;;;28.80;57.50;;;;;;5045770;28;20204;-77
2024/02/25 07:46:09;;;;;;;14.67;7.73;;;28.30;58.60;;;;;;5047391;28;20212;-76
2024/02/25 07:48:45;;;;;;;10.93;5.13;;;28.30;58.50;;;;;;5049347;28;20180;-74
2024/02/25 07:51:12;;;;;;;11.97;5.57;;;28.60;57.80;;;;;;5047408;28;20203;-78
2024/02/25 07:53:39;;;;;;;14.17;4.67;;;28.30;57.80;;;;;;5051331;28;20235;-83
2024/02/25 07:56:07;;;;;;;8.40;3.40;;;27.80;59.70;;;;;;5050795;28;20190;-76
2024/02/25 07:58:34;;;;;;;7.53;3.63;;;27.60;59.70;;;;;;5050063;28;20638;-76
2024/02/25 08:01:01;;;;;;;7.03;3.40;;;27.20;60.60;;;;;;5048821;28;20191;-76
2024/02/25 08:03:29;;;;;;;7.97;3.47;;;26.60;62.80;;;;;;5051752;28;20184;-74
2024/02/25 08:05:56;;;;;;;10.40;3.83;;;26.10;63.90;;;;;;5048147;28;20220;-79
2024/02/25 08:08:27;;;;;;;7.80;3.20;;;25.80;65.10;;;;;;5047750;28;20184;-77
2024/02/25 08:11:02;;;;;;;7.43;3.23;;;25.50;66.50;;;;;;5050734;28;20187;-77
2024/02/25 08:13:30;;;;;;;6.80;2.73;;;25.30;67.20;;;;;;5047169;28;20186;-78
2024/02/25 08:15:57;;;;;;;6.87;3.17;;;25.20;68.20;;;;;;5049059;28;20172;-78
2024/02/25 08:18:25;;;;;;;9.77;3.90;;;25.00;69.00;;;;;;5047170;28;20551;-76
2024/02/25 08:20:52;;;;;;;7.57;3.97;;;24.90;69.50;;;;;;5048522;28;20176;-77
2024/02/25 08:23:20;;;;;;;11.93;5.57;;;24.80;69.80;;;;;;5048345;28;20188;-75
2024/02/25 08:25:49;;;;;;;8.47;3.30;;;24.80;69.80;;;;;;5044873;28;20253;-82
2024/02/25 08:28:16;;;;;;;5.50;3.20;;;24.80;70.40;;;;;;5048483;28;20709;-81
2024/02/25 08:30:43;;;;;;;8.67;3.57;;;24.70;70.70;;;;;;5045035;28;20198;-74
2024/02/25 08:33:12;;;;;;;5.37;2.70;;;24.60;71.10;;;;;;5049170;28;20180;-77
2024/02/25 08:35:42;;;;;;;6.57;2.70;;;24.50;71.40;;;;;;5046397;28;20219;-76
2024/02/25 08:38:09;;;;;;;15.20;3.30;;;24.40;72.00;;;;;;5044186;28;20183;-76
2024/02/25 08:40:37;;;;;;;9.53;3.37;;;24.40;72.40;;;;;;5047716;28;20188;-76
2024/02/25 08:43:04;;;;;;;11.70;2.73;;;24.30;72.70;;;;;;5049279;28;20179;-77
2024/02/25 08:45:32;;;;;;;9.07;3.10;;;24.30;72.90;;;;;;5046186;28;20666;-77
2024/02/25 08:48:02;;;;;;;6.40;3.67;;;24.30;73.30;;;;;;5042402;28;20275;-76
2024/02/25 08:50:31;;;;;;;10.83;2.77;;;24.20;73.60;;;;;;5046877;28;20197;-79
2024/02/25 08:52:58;;;;;;;15.57;3.20;;;24.20;73.90;;;;;;5044908;28;20195;-79
2024/02/25 08:55:27;;;;;;;6.03;2.77;;;24.20;74.00;;;;;;5048221;28;20649;-76
2024/02/25 08:57:55;;;;;;;6.83;3.17;;;24.10;74.30;;;;;;5043816;28;20176;-75
2024/02/25 09:00:22;;;;;;;7.23;2.33;;;24.10;74.60;;;;;;5043729;28;20184;-77
2024/02/25 09:02:50;;;;;;;8.90;3.30;;;24.10;74.80;;;;;;5046187;28;20176;-73
2024/02/25 09:05:17;;;;;;;11.87;2.80;;;24.10;74.80;;;;;;5043306;28;20678;-78
2024/02/25 09:07:44;;;;;;;8.73;2.70;;;24.10;75.00;;;;;;5042747;28;20635;-76
2024/02/25 09:10:18;;;;;;;7.50;2.43;;;24.00;75.30;;;;;;5043661;28;20192;-75
2024/02/25 09:12:47;;;;;;;10.17;2.60;;;24.00;75.30;;;;;;5043243;28;20188;-75
2024/02/25 09:15:17;;;;;;;11.23;2.63;;;23.90;75.40;;;;;;5040654;28;20195;-76
2024/02/25 09:17:47;;;;;;;11.53;2.80;;;23.90;75.60;;;;;;5042885;28;20192;-75
2024/02/25 09:20:15;;;;;;;7.97;2.73;;;23.80;75.70;;;;;;5027335;28;20647;-75
2024/02/25 09:22:42;;;;;;;8.20;3.10;;;23.80;75.90;;;;;;5042264;28;20729;-74
2024/02/25 09:25:10;;;;;;;8.47;2.80;;;23.80;75.90;;;;;;5041226;28;20245;-75
2024/02/25 09:27:38;;;;;;;9.03;2.97;;;23.80;75.90;;;;;;5045600;28;20227;-74
2024/02/25 09:30:07;;;;;;;6.23;2.83;;;23.80;76.00;;;;;;5040458;28;20276;-73
2024/02/25 09:32:37;;;;;;;8.17;2.87;;;23.80;76.00;;;;;;5033951;28;20188;-73
2024/02/25 09:35:04;;;;;;;13.10;3.43;;;23.80;76.30;;;;;;5040980;28;20257;-73
2024/02/25 09:37:32;;;;;;;7.33;3.73;;;23.80;76.40;;;;;;5047368;28;20273;-74
2024/02/25 09:39:59;;;;;;;8.43;3.30;;;23.70;76.40;;;;;;5041658;28;20180;-73
2024/02/25 09:42:27;;;;;;;9.97;3.83;;;23.70;76.70;;;;;;5044752;28;20199;-73
2024/02/25 09:44:55;;;;;;;10.67;3.37;;;23.70;76.70;;;;;;5044604;28;20180;-75
2024/02/25 09:47:26;;;;;;;10.67;3.07;;;23.70;76.90;;;;;;5048669;28;20196;-72
2024/02/25 09:49:54;;;;;;;7.87;3.83;;;23.60;77.10;;;;;;5042003;28;20551;-74
2024/02/25 09:52:22;;;;;;;11.17;3.53;;;23.60;77.20;;;;;;5047422;28;20230;-74
2024/02/25 09:54:50;;;;;;;9.43;3.17;;;23.60;77.20;;;;;;5043561;28;20188;-74
2024/02/25 09:57:17;;;;;;;10.33;2.90;;;23.60;77.30;;;;;;5040894;28;20188;-73
2024/02/25 09:59:46;;;;;;;7.13;2.90;;;23.60;77.30;;;;;;5044433;28;20190;-75
2024/02/25 10:02:14;;;;;;;6.20;2.20;;;23.50;77.20;;;;;;5045888;28;20712;-73
2024/02/25 10:04:44;;;;;;;9.40;2.87;;;23.50;77.30;;;;;;5040871;28;20191;-75
2024/02/25 10:07:14;;;;;;;7.80;2.80;;;23.40;77.30;;;;;;5043862;28;20263;-74
2024/02/25 10:09:43;;;;;;;7.67;2.60;;;23.40;77.60;;;;;;5046899;28;20184;-73
2024/02/25 10:12:12;;;;;;;10.77;3.03;;;23.40;77.50;;;;;;5040324;28;20279;-73
2024/02/25 10:14:40;;;;;;;6.03;2.30;;;23.30;77.40;;;;;;5044001;28;20180;-74
2024/02/25 10:17:13;;;;;;;13.77;2.93;;;23.30;77.40;;;;;;5043896;28;20195;-74
2024/02/25 10:19:51;;;;;;;12.87;2.73;;;23.30;77.60;;;;;;5038414;28;20188;-73
2024/02/25 10:22:18;;;;;;;7.60;2.83;;;23.30;77.70;;;;;;5043733;28;20545;-73
2024/02/25 10:24:47;;;;;;;8.77;2.63;;;23.30;77.60;;;;;;5044372;28;20270;-72
2024/02/25 10:27:15;;;;;;;7.43;1.90;;;23.30;77.70;;;;;;5043918;28;20341;-73
2024/02/25 10:29:55;;;;;;;7.70;2.20;;;23.20;77.70;;;;;;5039089;28;20287;-74
2024/02/25 10:32:27;;;;;;;7.17;2.47;;;23.30;77.80;;;;;;5045276;28;20614;-73
2024/02/25 10:34:57;;;;;;;12.20;2.70;;;23.30;77.80;;;;;;5043595;28;20168;-72
2024/02/25 10:37:29;;;;;;;7.20;2.20;;;23.20;77.80;;;;;;5041367;28;20211;-76
2024/02/25 10:39:58;;;;;;;8.20;2.37;;;23.20;77.90;;;;;;5042045;28;20188;-76
2024/02/25 10:42:28;;;;;;;8.60;2.37;;;23.20;77.90;;;;;;5042239;28;20204;-72
2024/02/25 10:44:59;;;;;;;10.07;2.90;;;23.20;78.00;;;;;;5038754;28;20176;-73
2024/02/25 10:47:27;;;;;;;7.53;2.10;;;23.10;78.00;;;;;;5036244;28;20192;-73
2024/02/25 10:49:56;;;;;;;7.37;2.43;;;23.10;78.10;;;;;;5039761;28;20230;-75
2024/02/25 10:52:27;;;;;;;8.87;2.00;;;23.10;78.30;;;;;;5045265;28;20286;-73
2024/02/25 10:54:57;;;;;;;6.73;2.20;;;23.00;78.40;;;;;;5045908;28;20181;-74
2024/02/25 10:57:24;;;;;;;9.93;2.60;;;23.00;78.50;;;;;;5045377;28;20192;-73
2024/02/25 10:59:54;;;;;;;16.70;2.90;;;23.00;78.70;;;;;;5049252;28;20269;-75
2024/02/25 11:02:23;;;;;;;7.20;2.40;;;23.00;78.80;;;;;;5047388;28;20184;-73
2024/02/25 11:04:51;;;;;;;7.20;2.37;;;23.00;78.80;;;;;;5043016;28;20237;-73
2024/02/25 11:07:18;;;;;;;12.40;2.80;;;23.00;78.90;;;;;;5046087;28;20331;-74
2024/02/25 11:09:47;;;;;;;10.03;2.80;;;23.00;79.00;;;;;;5041892;28;20187;-73
2024/02/25 11:12:24;;;;;;;9.63;2.50;;;22.90;79.00;;;;;;5049637;28;20199;-73
2024/02/25 11:14:56;;;;;;;7.93;2.50;;;22.90;79.10;;;;;;5045814;28;20564;-76
2024/02/25 11:17:29;;;;;;;7.23;2.63;;;22.90;79.20;;;;;;5040943;28;20286;-72
2024/02/25 11:19:59;;;;;;;6.10;2.60;;;22.90;79.10;;;;;;5046294;28;20182;-75
2024/02/25 11:22:42;;;;;;;11.67;2.60;;;22.90;79.10;;;;;;5040504;28;20184;-74
2024/02/25 11:25:35;;;;;;;12.00;2.80;;;22.90;79.10;;;;;;5039982;28;20177;-73
2024/02/25 11:28:23;;;;;;;10.90;3.20;;;22.80;79.30;;;;;;5043383;28;20216;-73
2024/02/25 11:30:52;;;;;;;10.27;3.20;;;22.80;79.50;;;;;;5047644;28;20210;-72
2024/02/25 11:33:48;;;;;;;9.47;3.80;;;22.80;79.60;;;;;;5043438;28;20215;-72
2024/02/25 11:36:16;;;;;;;12.90;3.97;;;22.80;79.60;;;;;;5046021;28;20573;-72
2024/02/25 11:38:48;;;;;;;9.37;3.40;;;22.80;79.70;;;;;;5048963;28;20199;-72
2024/02/25 11:41:16;;;;;;;15.20;4.07;;;22.80;79.90;;;;;;5047412;28;20199;-72
2024/02/25 11:43:44;;;;;;;14.80;4.10;;;22.80;80.00;;;;;;5045112;28;20172;-72
2024/02/25 11:46:16;;;;;;;8.60;4.03;;;22.80;80.00;;;;;;5038477;28;20211;-72
2024/02/25 11:48:43;;;;;;;9.40;4.17;;;22.70;80.20;;;;;;5045534;28;20180;-73
2024/02/25 11:51:10;;;;;;;12.63;4.60;;;22.70;80.30;;;;;;5049318;28;20203;-72
2024/02/25 11:53:37;;;;;;;10.23;4.53;;;22.70;80.30;;;;;;5042229;28;20239;-72
2024/02/25 11:56:05;;;;;;;8.63;4.70;;;22.70;80.40;;;;;;5042657;28;20218;-73
2024/02/25 11:58:33;;;;;;;11.33;5.07;;;22.60;80.50;;;;;;5039508;28;20643;-74
2024/02/25 12:01:01;;;;;;;7.97;5.20;;;22.60;80.60;;;;;;5044476;28;20172;-72
2024/02/25 12:03:29;;;;;;;13.80;5.80;;;22.60;80.70;;;;;;5040136;28;20199;-74
2024/02/25 12:05:57;;;;;;;13.10;6.23;;;22.50;80.80;;;;;;5048460;28;20263;-74
2024/02/25 12:08:24;;;;;;;13.93;6.70;;;22.50;80.90;;;;;;5042007;28;20185;-73
2024/02/25 12:10:52;;;;;;;10.17;6.97;;;22.50;81.10;;;;;;5043528;28;20236;-74
2024/02/25 12:13:19;;;;;;;12.77;6.53;;;22.40;81.20;;;;;;5044267;28;20176;-73
2024/02/25 12:15:48;;;;;;;9.03;5.97;;;22.40;81.30;;;;;;5041600;28;20184;-73
2024/02/25 12:18:18;;;;;;;8.83;5.93;;;22.40;81.40;;;;;;5031459;28;20203;-73
2024/02/25 12:20:46;;;;;;;7.47;5.87;;;22.30;81.60;;;;;;5039042;28;20182;-72
2024/02/25 12:23:14;;;;;;;8.20;6.60;;;22.30;81.80;;;;;;5040265;28;20272;-74
2024/02/25 12:25:43;;;;;;;7.47;6.60;;;22.30;81.90;;;;;;5045131;28;20201;-72
2024/02/25 12:28:13;;;;;;;8.73;6.60;;;22.30;82.10;;;;;;5047050;28;20239;-72
2024/02/25 12:30:47;;;;;;;8.20;6.67;;;22.20;82.20;;;;;;5042684;28;20210;-73
2024/02/25 12:33:17;;;;;;;15.37;7.00;;;22.20;82.50;;;;;;5035640;28;20819;-72
2024/02/25 12:35:46;;;;;;;10.03;6.80;;;22.20;82.50;;;;;;5042599;28;20199;-73
2024/02/25 12:38:15;;;;;;;8.27;6.63;;;22.20;82.50;;;;;;5044749;28;20175;-73
2024/02/25 12:40:45;;;;;;;10.53;7.70;;;22.10;82.70;;;;;;5040501;28;20638;-72
2024/02/25 12:43:16;;;;;;;11.90;6.87;;;22.10;82.80;;;;;;5045271;28;20189;-74
2024/02/25 12:45:44;;;;;;;15.00;7.13;;;22.10;83.00;;;;;;5024834;28;20709;-73
2024/02/25 12:48:12;;;;;;;9.17;6.83;;;22.10;83.00;;;;;;5042742;28;20241;-76
2024/02/25 12:50:39;;;;;;;14.30;7.20;;;22.10;83.10;;;;;;5039353;28;20243;-73
2024/02/25 12:53:08;;;;;;;11.60;7.67;;;22.00;83.20;;;;;;5039267;28;20223;-73